Time;durP1;ratioP1;P1;durP2;ratioP2;P2;SDS_P1;SDS_P2;PMS_P1;PMS_P2;Temp;Humidity;BMP_temperature;BMP_pressure;BME280_temperature;BME280_humidity;BME280_pressure;Samples;Min_cycle;Max_cycle;Signal;HPM_P1;HPM_P2
2022/07/09 00:01:16;;;;;;;4.00;2.20;;;17.00;95.00;;;;;;4879143;29;20024;-71
2022/07/09 00:03:43;;;;;;;2.42;2.00;;;17.00;95.00;;;;;;4891575;29;20268;-71
2022/07/09 00:06:09;;;;;;;4.15;2.25;;;17.00;94.90;;;;;;4894821;29;20036;-72
2022/07/09 00:08:35;;;;;;;4.07;2.30;;;17.00;94.90;;;;;;4897536;29;20072;-72
2022/07/09 00:11:00;;;;;;;3.50;2.00;;;17.00;94.80;;;;;;4881181;29;20850;-72
2022/07/09 00:13:26;;;;;;;3.40;2.00;;;16.90;94.80;;;;;;4900256;29;20032;-71
2022/07/09 00:15:54;;;;;;;3.75;2.35;;;17.00;94.80;;;;;;4901025;29;20027;-71
2022/07/09 00:18:20;;;;;;;3.25;2.05;;;17.00;94.70;;;;;;4884044;29;20699;-71
2022/07/09 00:20:47;;;;;;;3.77;2.20;;;17.00;94.50;;;;;;4897887;29;20031;-72
2022/07/09 00:23:12;;;;;;;4.03;2.13;;;17.00;94.50;;;;;;4901597;29;21013;-73
2022/07/09 00:25:38;;;;;;;3.63;2.07;;;17.10;94.50;;;;;;4880880;29;20032;-72
2022/07/09 00:28:04;;;;;;;2.90;2.20;;;17.10;94.70;;;;;;4899500;29;20106;-72
2022/07/09 00:30:29;;;;;;;3.80;2.17;;;17.00;94.90;;;;;;4900358;29;20264;-71
2022/07/09 00:32:55;;;;;;;3.33;2.03;;;17.00;94.90;;;;;;4901142;29;20028;-72
2022/07/09 00:35:20;;;;;;;3.87;1.87;;;17.00;95.20;;;;;;4901549;29;20292;-72
2022/07/09 00:37:47;;;;;;;3.03;1.83;;;17.00;95.30;;;;;;4882753;29;20063;-71
2022/07/09 00:40:13;;;;;;;3.65;2.20;;;17.00;95.10;;;;;;4877618;29;20025;-72
2022/07/09 00:42:39;;;;;;;2.97;1.85;;;17.00;95.10;;;;;;4899317;29;20043;-72
2022/07/09 00:45:05;;;;;;;2.95;2.00;;;17.00;95.10;;;;;;4885060;29;20152;-72
2022/07/09 00:47:30;;;;;;;3.33;2.03;;;17.00;95.20;;;;;;4903150;29;20063;-72
2022/07/09 00:49:56;;;;;;;4.63;2.17;;;17.00;95.30;;;;;;4903902;29;20060;-71
2022/07/09 00:52:22;;;;;;;3.60;1.92;;;17.00;95.30;;;;;;4899691;29;20750;-71
2022/07/09 00:54:48;;;;;;;3.65;2.22;;;17.10;95.30;;;;;;4891491;29;20802;-71
2022/07/09 00:57:16;;;;;;;3.53;2.00;;;17.10;95.20;;;;;;4900114;29;20035;-71
2022/07/09 00:59:42;;;;;;;2.65;2.20;;;17.00;95.20;;;;;;4898981;29;20115;-71
2022/07/09 01:02:09;;;;;;;2.92;2.20;;;17.00;95.10;;;;;;4900346;29;20056;-71
2022/07/09 01:04:36;;;;;;;3.88;2.05;;;17.00;95.20;;;;;;4896535;29;20119;-72
2022/07/09 01:07:02;;;;;;;2.45;1.90;;;17.00;95.20;;;;;;4900057;29;20035;-72
2022/07/09 01:09:29;;;;;;;2.65;2.00;;;16.90;95.40;;;;;;4900218;29;20016;-72
2022/07/09 01:11:56;;;;;;;2.03;1.83;;;16.90;95.30;;;;;;4898502;29;20021;-72
2022/07/09 01:14:22;;;;;;;5.07;1.70;;;16.90;95.20;;;;;;4899270;29;20024;-71
2022/07/09 01:16:58;;;;;;;3.13;2.15;;;16.90;95.20;;;;;;4895482;29;20028;-71
2022/07/09 01:19:25;;;;;;;2.20;2.00;;;16.90;95.00;;;;;;4878529;29;20028;-71
2022/07/09 01:21:50;;;;;;;3.88;2.30;;;16.80;95.30;;;;;;4895727;29;20016;-72
2022/07/09 01:24:17;;;;;;;2.88;1.67;;;16.80;95.40;;;;;;4881246;29;20086;-71
2022/07/09 01:26:43;;;;;;;2.65;1.73;;;16.80;95.40;;;;;;4884544;29;20548;-71
2022/07/09 01:29:08;;;;;;;2.90;2.10;;;16.80;95.30;;;;;;4898203;29;20024;-72
2022/07/09 01:31:34;;;;;;;4.50;1.87;;;16.80;95.30;;;;;;4896033;29;20880;-72
2022/07/09 01:34:01;;;;;;;6.57;2.30;;;16.90;95.10;;;;;;4883422;29;20024;-71
2022/07/09 01:36:26;;;;;;;2.00;1.70;;;16.90;95.00;;;;;;4881077;29;20123;-71
2022/07/09 01:38:52;;;;;;;4.80;1.50;;;16.80;95.30;;;;;;4895282;29;20095;-72
2022/07/09 01:41:17;;;;;;;3.57;1.83;;;16.70;95.30;;;;;;4900878;29;20820;-72
2022/07/09 01:43:43;;;;;;;4.00;1.90;;;16.70;95.40;;;;;;4899033;29;20028;-71
2022/07/09 01:46:10;;;;;;;4.23;2.20;;;16.60;95.40;;;;;;4900271;29;20032;-72
2022/07/09 01:48:35;;;;;;;3.72;1.83;;;16.60;95.40;;;;;;4895712;29;20260;-72
2022/07/09 01:51:02;;;;;;;4.70;1.90;;;16.60;95.50;;;;;;4898131;29;20055;-72
2022/07/09 01:53:29;;;;;;;2.78;1.70;;;16.60;95.50;;;;;;4895750;29;20016;-72
2022/07/09 01:55:55;;;;;;;3.05;1.95;;;16.60;95.60;;;;;;4880349;29;20123;-71
2022/07/09 01:58:22;;;;;;;3.10;2.05;;;16.50;95.50;;;;;;4900307;29;20102;-71
2022/07/09 02:00:48;;;;;;;3.80;1.90;;;16.60;95.60;;;;;;4893488;29;20028;-72
2022/07/09 02:03:14;;;;;;;;;;;16.60;95.50;;;;;;4897729;29;20020;-71
2022/07/09 02:05:40;;;;;;;5.70;1.60;;;16.50;95.60;;;;;;4896455;29;20650;-71
2022/07/09 02:08:05;;;;;;;3.55;1.85;;;16.50;95.70;;;;;;4898710;29;20032;-71
2022/07/09 02:10:31;;;;;;;2.33;1.70;;;16.50;95.30;;;;;;4897884;29;21444;-72
2022/07/09 02:12:57;;;;;;;2.45;1.95;;;16.60;95.50;;;;;;4898891;29;20888;-71
2022/07/09 02:15:23;;;;;;;4.37;1.90;;;16.50;95.50;;;;;;4894160;29;20046;-71
2022/07/09 02:17:49;;;;;;;9.15;2.33;;;16.50;95.70;;;;;;4882046;29;20020;-71
2022/07/09 02:20:15;;;;;;;4.80;1.63;;;16.50;95.60;;;;;;4881367;29;20036;-71
2022/07/09 02:22:41;;;;;;;4.20;1.60;;;16.50;95.70;;;;;;4899433;29;20091;-71
2022/07/09 02:25:08;;;;;;;3.50;1.70;;;16.50;95.70;;;;;;4898689;29;20024;-72
2022/07/09 02:27:33;;;;;;;3.25;1.65;;;16.50;95.50;;;;;;4902595;29;20058;-72
2022/07/09 02:29:59;;;;;;;2.83;1.50;;;16.50;95.60;;;;;;4898087;29;20475;-72
2022/07/09 02:32:25;;;;;;;1.52;1.42;;;16.50;95.60;;;;;;4897863;29;20028;-72
2022/07/09 02:34:50;;;;;;;3.27;1.50;;;16.60;95.60;;;;;;4898883;29;20385;-71
2022/07/09 02:37:16;;;;;;;5.30;1.70;;;16.60;95.50;;;;;;4875369;29;20046;-72
2022/07/09 02:39:41;;;;;;;3.60;2.03;;;16.60;95.50;;;;;;4895771;29;20267;-73
2022/07/09 02:42:08;;;;;;;3.10;1.90;;;16.80;95.00;;;;;;4879780;29;20261;-72
2022/07/09 02:44:34;;;;;;;2.65;1.90;;;16.90;95.00;;;;;;4898659;29;20056;-72
2022/07/09 02:46:59;;;;;;;3.07;1.40;;;16.90;95.00;;;;;;4898604;29;20023;-72
2022/07/09 02:49:25;;;;;;;4.88;1.80;;;16.90;94.80;;;;;;4897837;29;20103;-72
2022/07/09 02:51:52;;;;;;;2.90;1.60;;;17.00;94.70;;;;;;4882020;29;20035;-72
2022/07/09 02:54:19;;;;;;;2.42;1.45;;;17.10;94.60;;;;;;4898628;29;20343;-72
2022/07/09 02:56:44;;;;;;;4.45;1.90;;;17.10;94.50;;;;;;4879057;29;20474;-72
2022/07/09 02:59:10;;;;;;;1.90;1.42;;;17.10;94.50;;;;;;4882921;29;20047;-71
2022/07/09 03:01:35;;;;;;;3.27;1.70;;;17.20;94.50;;;;;;4894490;29;20033;-71
2022/07/09 03:04:01;;;;;;;2.00;1.30;;;17.20;94.30;;;;;;4897760;29;20303;-71
2022/07/09 03:06:27;;;;;;;2.17;1.53;;;17.20;94.30;;;;;;4881517;29;20080;-71
2022/07/09 03:08:52;;;;;;;2.47;1.63;;;17.20;94.40;;;;;;4881250;29;20265;-71
2022/07/09 03:11:18;;;;;;;3.07;1.60;;;17.20;94.20;;;;;;4890898;29;20535;-71
2022/07/09 03:13:45;;;;;;;3.73;1.40;;;17.20;94.40;;;;;;4887400;29;20021;-71
2022/07/09 03:16:11;;;;;;;4.50;1.48;;;17.20;94.20;;;;;;4893492;29;21769;-72
2022/07/09 03:18:38;;;;;;;;;;;17.20;94.20;;;;;;4879112;29;20032;-71
2022/07/09 03:21:04;;;;;;;3.25;1.67;;;17.10;94.50;;;;;;4895409;29;19958;-71
2022/07/09 03:23:30;;;;;;;2.90;1.60;;;17.10;94.40;;;;;;4898364;29;20123;-72
2022/07/09 03:25:57;;;;;;;1.98;1.30;;;17.10;94.40;;;;;;4899148;29;20074;-71
2022/07/09 03:28:24;;;;;;;1.85;1.50;;;17.10;94.30;;;;;;4896090;29;20079;-71
2022/07/09 03:30:50;;;;;;;3.25;1.60;;;17.10;94.40;;;;;;4897195;29;20112;-72
2022/07/09 03:33:16;;;;;;;2.88;1.40;;;17.10;94.40;;;;;;4897341;29;20111;-71
2022/07/09 03:35:41;;;;;;;5.57;1.90;;;17.20;94.30;;;;;;4894917;29;20585;-72
2022/07/09 03:38:07;;;;;;;3.07;1.80;;;17.20;94.20;;;;;;4898493;29;20028;-71
2022/07/09 03:40:33;;;;;;;1.40;1.27;;;17.20;94.10;;;;;;4896862;29;20327;-72
2022/07/09 03:42:59;;;;;;;3.60;1.58;;;17.30;94.20;;;;;;4881771;29;20024;-74
2022/07/09 03:45:24;;;;;;;3.38;1.80;;;17.30;93.90;;;;;;4895796;29;20035;-72
2022/07/09 03:47:50;;;;;;;4.05;1.73;;;17.40;93.90;;;;;;4884857;29;20116;-71
2022/07/09 03:50:16;;;;;;;3.67;1.80;;;17.40;93.90;;;;;;4881133;29;20032;-72
2022/07/09 03:52:41;;;;;;;4.75;1.95;;;17.40;93.90;;;;;;4900606;29;20264;-71
2022/07/09 03:55:07;;;;;;;3.47;1.70;;;17.40;93.90;;;;;;4902584;29;20390;-71
2022/07/09 03:57:33;;;;;;;3.40;1.58;;;17.40;93.90;;;;;;4900343;29;20633;-71
2022/07/09 03:59:59;;;;;;;4.20;2.00;;;17.50;93.90;;;;;;4899613;29;20025;-71
2022/07/09 04:02:24;;;;;;;2.97;1.53;;;17.50;93.70;;;;;;4898131;29;20260;-72
2022/07/09 04:04:51;;;;;;;5.03;1.90;;;17.50;93.60;;;;;;4897689;29;20489;-71
2022/07/09 04:07:18;;;;;;;3.63;1.42;;;17.50;93.80;;;;;;4880809;29;20024;-71
2022/07/09 04:09:43;;;;;;;2.35;1.30;;;17.60;93.70;;;;;;4885098;29;20031;-71
2022/07/09 04:12:09;;;;;;;6.43;1.67;;;17.60;93.80;;;;;;4896689;29;20050;-72
2022/07/09 04:14:35;;;;;;;1.73;1.55;;;17.60;93.80;;;;;;4887177;29;20024;-71
2022/07/09 04:17:00;;;;;;;3.17;1.65;;;17.60;93.70;;;;;;4899875;29;20013;-71
2022/07/09 04:19:26;;;;;;;4.85;1.92;;;17.60;93.70;;;;;;4898776;29;20035;-71
2022/07/09 04:21:52;;;;;;;3.70;1.42;;;17.60;93.80;;;;;;4897122;29;20704;-72
2022/07/09 04:24:17;;;;;;;2.20;1.70;;;17.60;94.00;;;;;;4898837;29;20040;-74
2022/07/09 04:26:43;;;;;;;2.97;1.83;;;17.70;93.70;;;;;;4900902;29;20039;-72
2022/07/09 04:29:10;;;;;;;3.92;1.80;;;17.70;93.70;;;;;;4900416;29;20606;-74
2022/07/09 04:31:36;;;;;;;3.03;1.75;;;17.80;93.60;;;;;;4880575;29;20455;-72
2022/07/09 04:34:02;;;;;;;3.38;1.60;;;17.80;93.40;;;;;;4883417;29;20130;-72
2022/07/09 04:36:29;;;;;;;2.67;1.52;;;17.80;93.40;;;;;;4894412;29;20817;-74
2022/07/09 04:38:56;;;;;;;4.07;1.70;;;17.90;93.30;;;;;;4900408;29;20021;-71
2022/07/09 04:41:23;;;;;;;2.40;1.70;;;18.00;93.20;;;;;;4883661;29;20415;-74
2022/07/09 04:43:48;;;;;;;3.70;1.70;;;18.00;93.30;;;;;;4900966;29;20050;-71
2022/07/09 04:46:16;;;;;;;2.08;1.60;;;18.20;93.00;;;;;;4896506;29;20024;-72
2022/07/09 04:48:42;;;;;;;4.93;1.70;;;18.20;93.00;;;;;;4897803;29;20032;-74
2022/07/09 04:51:07;;;;;;;3.70;1.95;;;18.20;92.80;;;;;;4880275;29;20382;-74
2022/07/09 04:53:33;;;;;;;2.78;1.52;;;18.20;92.80;;;;;;4897474;29;20075;-75
2022/07/09 04:55:59;;;;;;;3.08;2.00;;;18.20;92.90;;;;;;4879600;29;20035;-72
2022/07/09 04:58:24;;;;;;;3.70;1.80;;;18.20;93.00;;;;;;4881957;29;20100;-71
2022/07/09 05:00:51;;;;;;;3.60;1.77;;;18.20;93.00;;;;;;4899042;29;20044;-73
2022/07/09 05:03:17;;;;;;;1.58;1.38;;;18.30;92.90;;;;;;4897869;29;20044;-72
2022/07/09 05:05:43;;;;;;;3.35;1.98;;;18.50;93.00;;;;;;4900800;29;20024;-72
2022/07/09 05:08:09;;;;;;;5.70;2.15;;;18.60;93.00;;;;;;4899894;29;20040;-72
2022/07/09 05:10:36;;;;;;;2.95;1.55;;;18.70;92.70;;;;;;4903376;29;20387;-72
2022/07/09 05:13:02;;;;;;;3.13;1.67;;;18.90;92.40;;;;;;4883679;29;20016;-72
2022/07/09 05:15:30;;;;;;;5.53;2.33;;;19.00;92.40;;;;;;4896235;29;20020;-72
2022/07/09 05:17:58;;;;;;;3.08;1.70;;;19.10;92.50;;;;;;4898782;29;20040;-72
2022/07/09 05:20:26;;;;;;;2.65;1.65;;;19.20;92.30;;;;;;4896868;29;20059;-72
2022/07/09 05:22:52;;;;;;;3.45;1.65;;;19.40;91.90;;;;;;4900662;29;20453;-72
2022/07/09 05:25:18;;;;;;;3.20;1.20;;;19.50;91.80;;;;;;4879148;29;20063;-72
2022/07/09 05:27:45;;;;;;;2.20;1.50;;;19.60;91.40;;;;;;4899977;29;20036;-72
2022/07/09 05:30:17;;;;;;;3.03;1.50;;;19.70;91.30;;;;;;4899663;29;20162;-73
2022/07/09 05:32:43;;;;;;;1.92;1.50;;;19.70;91.20;;;;;;4900767;29;20441;-73
2022/07/09 05:35:10;;;;;;;3.60;1.55;;;19.90;91.10;;;;;;4882266;29;20039;-73
2022/07/09 05:37:43;;;;;;;1.60;1.17;;;20.10;90.70;;;;;;4882028;29;20025;-73
2022/07/09 05:40:10;;;;;;;4.13;1.52;;;20.10;90.60;;;;;;4903615;29;20031;-73
2022/07/09 05:42:35;;;;;;;2.45;1.52;;;20.10;90.50;;;;;;4897671;29;20039;-73
2022/07/09 05:45:02;;;;;;;2.30;1.40;;;20.10;90.50;;;;;;4901900;29;20048;-72
2022/07/09 05:47:28;;;;;;;2.47;1.50;;;20.00;90.80;;;;;;4895503;29;20035;-73
2022/07/09 05:49:54;;;;;;;2.17;1.85;;;20.10;90.40;;;;;;4882894;29;20016;-73
2022/07/09 05:52:19;;;;;;;2.75;1.58;;;20.60;90.00;;;;;;4891094;29;20040;-73
2022/07/09 05:54:45;;;;;;;1.52;1.38;;;21.10;88.50;;;;;;4898508;29;20051;-73
2022/07/09 05:57:11;;;;;;;2.08;1.50;;;22.10;85.70;;;;;;4902787;29;20038;-73
2022/07/09 05:59:37;;;;;;;2.13;1.30;;;23.10;82.40;;;;;;4895335;29;20493;-73
2022/07/09 06:02:05;;;;;;;5.07;1.40;;;23.90;80.20;;;;;;4877468;29;20646;-73
2022/07/09 06:04:31;;;;;;;3.03;1.35;;;24.80;78.20;;;;;;4895160;29;20074;-73
2022/07/09 06:06:56;;;;;;;;;;;25.80;75.10;;;;;;4894945;29;20737;-73
2022/07/09 06:09:22;;;;;;;2.63;1.00;;;26.10;73.50;;;;;;4898571;29;19907;-73
2022/07/09 06:11:48;;;;;;;3.38;1.40;;;26.30;72.70;;;;;;4881263;29;20122;-73
2022/07/09 06:14:13;;;;;;;2.78;1.63;;;26.30;72.80;;;;;;4895881;29;20553;-74
2022/07/09 06:16:39;;;;;;;3.88;1.73;;;25.90;72.40;;;;;;4881555;29;20032;-74
2022/07/09 06:19:05;;;;;;;5.97;1.20;;;26.20;72.00;;;;;;4895923;29;20032;-74
2022/07/09 06:21:31;;;;;;;2.80;1.45;;;26.20;71.00;;;;;;4897673;29;20043;-74
2022/07/09 06:24:00;;;;;;;2.70;1.50;;;26.20;71.20;;;;;;4876448;29;20029;-73
2022/07/09 06:26:28;;;;;;;3.08;1.52;;;25.80;72.00;;;;;;4898412;29;20469;-73
2022/07/09 06:28:53;;;;;;;3.90;1.50;;;25.70;72.20;;;;;;4880713;29;20173;-73
2022/07/09 06:31:20;;;;;;;3.60;1.40;;;25.70;71.90;;;;;;4897938;29;20028;-75
2022/07/09 06:33:46;;;;;;;2.65;1.45;;;26.10;71.80;;;;;;4882527;29;20564;-74
2022/07/09 06:36:11;;;;;;;;;;;26.80;70.00;;;;;;4895803;29;20044;-74
2022/07/09 06:39:44;;;;;;;2.15;1.20;;;27.30;68.80;;;;;;4885871;29;19915;-74
2022/07/09 06:41:22;;;;;;;4.95;1.65;;;27.50;67.60;;;;;;4901287;29;20034;-73
2022/07/09 06:43:48;;;;;;;2.38;1.17;;;27.60;67.70;;;;;;4897088;29;20032;-73
2022/07/09 06:46:16;;;;;;;2.90;1.00;;;27.80;67.10;;;;;;4896843;29;20032;-81
2022/07/09 06:48:42;;;;;;;1.73;0.90;;;28.50;66.00;;;;;;4887047;29;20036;-80
2022/07/09 06:51:17;;;;;;;1.42;1.10;;;29.30;64.10;;;;;;4883142;29;20163;-84
2022/07/09 06:53:47;;;;;;;2.45;1.02;;;28.80;63.60;;;;;;4881154;29;20024;-80
2022/07/09 06:56:16;;;;;;;4.30;1.38;;;27.80;65.00;;;;;;4900725;29;20888;-82
2022/07/09 06:58:49;;;;;;;2.63;1.42;;;28.80;64.00;;;;;;4896906;29;20490;-81
2022/07/09 07:01:17;;;;;;;2.17;1.05;;;29.20;63.20;;;;;;4899984;29;20024;-80
2022/07/09 07:03:46;;;;;;;1.77;1.10;;;29.60;62.50;;;;;;4887878;29;20095;-85
2022/07/09 07:06:18;;;;;;;3.60;1.40;;;28.90;62.20;;;;;;4883757;29;20111;-83
2022/07/09 07:08:46;;;;;;;2.10;1.10;;;27.50;64.60;;;;;;4892233;29;20036;-85
2022/07/09 07:11:15;;;;;;;2.95;1.30;;;27.00;65.40;;;;;;4900437;29;20033;-82
2022/07/09 07:13:40;;;;;;;2.55;1.30;;;26.50;66.10;;;;;;4880548;29;20423;-80
2022/07/09 07:16:06;;;;;;;;;;;26.00;67.00;;;;;;4881653;29;20024;-82
2022/07/09 07:18:34;;;;;;;2.25;1.27;;;25.40;67.90;;;;;;4878383;29;19915;-81
2022/07/09 07:21:03;;;;;;;2.53;1.33;;;24.90;69.00;;;;;;4898195;29;20498;-80
2022/07/09 07:23:46;;;;;;;2.03;1.10;;;24.10;70.50;;;;;;4896691;29;20083;-81
2022/07/09 07:26:13;;;;;;;2.85;1.40;;;24.70;69.80;;;;;;4878844;29;20144;-80
2022/07/09 07:28:41;;;;;;;5.13;1.10;;;25.80;67.90;;;;;;4894553;29;20025;-81
2022/07/09 07:31:07;;;;;;;2.45;1.10;;;26.90;66.10;;;;;;4882530;29;20122;-82
2022/07/09 07:33:38;;;;;;;1.77;1.17;;;28.00;63.70;;;;;;4879092;29;20383;-79
2022/07/09 07:36:04;;;;;;;1.92;1.42;;;27.40;62.80;;;;;;4899040;29;20787;-80
2022/07/09 07:38:35;;;;;;;1.85;1.15;;;28.70;61.70;;;;;;4899135;29;20032;-82
2022/07/09 07:41:04;;;;;;;2.10;1.20;;;29.10;59.70;;;;;;4882257;29;20083;-80
2022/07/09 07:43:29;;;;;;;4.00;1.17;;;28.70;59.60;;;;;;4881136;29;20063;-80
2022/07/09 07:45:55;;;;;;;3.83;1.10;;;27.50;60.70;;;;;;4903047;29;20028;-80
2022/07/09 07:48:21;;;;;;;1.70;1.20;;;26.50;62.70;;;;;;4883520;29;20043;-80
2022/07/09 07:50:46;;;;;;;;;;;25.00;66.00;;;;;;4881668;29;20021;-79
2022/07/09 07:53:12;;;;;;;2.65;1.13;;;25.40;67.20;;;;;;4896354;29;19942;-80
2022/07/09 07:55:38;;;;;;;;;;;25.70;66.90;;;;;;4882133;29;20024;-80
2022/07/09 07:58:06;;;;;;;2.33;1.20;;;25.90;66.40;;;;;;4881865;29;19911;-80
2022/07/09 08:00:33;;;;;;;2.97;1.20;;;26.70;64.90;;;;;;4882116;29;20032;-80
2022/07/09 08:03:00;;;;;;;2.50;1.10;;;27.70;62.80;;;;;;4898734;29;20389;-80
2022/07/09 08:05:27;;;;;;;2.63;1.38;;;28.40;61.80;;;;;;4880044;29;20024;-80
2022/07/09 08:07:54;;;;;;;3.47;1.60;;;28.50;61.20;;;;;;4892405;29;20095;-81
2022/07/09 08:10:20;;;;;;;2.67;1.10;;;28.80;60.50;;;;;;4893649;29;20027;-81
2022/07/09 08:12:46;;;;;;;1.65;1.25;;;29.10;60.80;;;;;;4896018;29;20029;-79
2022/07/09 08:15:12;;;;;;;2.95;1.17;;;29.00;61.70;;;;;;4878778;29;20091;-80
2022/07/09 08:17:37;;;;;;;2.63;1.58;;;29.90;59.50;;;;;;4889771;29;20151;-80
2022/07/09 08:20:05;;;;;;;3.63;1.55;;;29.60;58.60;;;;;;4882383;29;20118;-78
2022/07/09 08:22:31;;;;;;;3.55;1.30;;;31.00;57.50;;;;;;4899614;29;20032;-79
2022/07/09 08:24:59;;;;;;;3.80;1.20;;;30.40;56.80;;;;;;4899205;29;20486;-78
2022/07/09 08:27:25;;;;;;;3.90;1.20;;;30.80;56.80;;;;;;4897285;29;20021;-77
2022/07/09 08:29:51;;;;;;;2.38;1.33;;;31.70;56.00;;;;;;4898761;29;20035;-78
2022/07/09 08:32:17;;;;;;;2.85;1.30;;;32.30;55.40;;;;;;4888099;29;20023;-77
2022/07/09 08:34:45;;;;;;;1.92;1.33;;;33.30;53.60;;;;;;4902538;29;20024;-78
2022/07/09 08:37:13;;;;;;;2.85;1.30;;;33.60;53.30;;;;;;4879626;29;20094;-79
2022/07/09 08:39:38;;;;;;;2.08;1.02;;;33.80;51.00;;;;;;4899723;29;20027;-80
2022/07/09 08:42:12;;;;;;;1.80;1.00;;;33.20;51.10;;;;;;4899657;29;20616;-80
2022/07/09 08:44:48;;;;;;;1.02;0.90;;;32.00;51.40;;;;;;4887562;29;20446;-83
2022/07/09 08:47:21;;;;;;;1.02;0.80;;;30.80;52.80;;;;;;4903634;29;20115;-82
2022/07/09 08:49:49;;;;;;;3.05;1.05;;;30.90;53.60;;;;;;4883949;29;20450;-80
2022/07/09 08:52:23;;;;;;;2.00;1.00;;;30.70;53.60;;;;;;4885025;29;20048;-79
2022/07/09 08:55:01;;;;;;;1.25;1.02;;;31.90;53.20;;;;;;4883891;29;20024;-79
2022/07/09 08:57:34;;;;;;;1.83;1.10;;;33.10;51.20;;;;;;4901358;29;20036;-79
2022/07/09 09:00:06;;;;;;;1.27;1.00;;;34.30;49.80;;;;;;4898332;29;20024;-78
2022/07/09 09:02:38;;;;;;;2.00;1.10;;;34.40;48.40;;;;;;4898130;29;20031;-79
2022/07/09 09:05:13;;;;;;;2.30;1.35;;;34.50;48.50;;;;;;4881532;29;20063;-78
2022/07/09 09:07:50;;;;;;;2.03;1.35;;;34.00;48.10;;;;;;4898438;29;20663;-77
2022/07/09 09:10:26;;;;;;;2.67;1.50;;;33.60;47.50;;;;;;4887993;29;20020;-78
2022/07/09 09:13:00;;;;;;;;;;;34.50;48.30;;;;;;4885836;29;20027;-77
2022/07/09 09:15:39;;;;;;;1.77;1.38;;;33.30;48.50;;;;;;4900683;29;19957;-78
2022/07/09 09:18:12;;;;;;;2.00;1.58;;;34.00;47.50;;;;;;4896358;29;21443;-79
2022/07/09 09:20:44;;;;;;;2.85;1.65;;;33.40;48.00;;;;;;4882698;29;20024;-79
2022/07/09 09:23:17;;;;;;;3.05;1.50;;;32.60;48.50;;;;;;4886037;29;20035;-78
2022/07/09 09:25:44;;;;;;;2.33;1.60;;;31.50;49.50;;;;;;4901830;29;20051;-81
2022/07/09 09:28:14;;;;;;;2.45;1.60;;;30.80;50.90;;;;;;4884167;29;20027;-80
2022/07/09 09:30:43;;;;;;;2.35;1.50;;;30.50;51.30;;;;;;4879105;29;20032;-81
2022/07/09 09:33:15;;;;;;;1.80;1.70;;;30.30;51.60;;;;;;4900684;29;20020;-80
2022/07/09 09:35:47;;;;;;;1.77;1.55;;;29.90;51.50;;;;;;4885390;29;20234;-82
2022/07/09 09:38:21;;;;;;;3.90;1.80;;;31.10;50.90;;;;;;4900597;29;20040;-79
2022/07/09 09:40:47;;;;;;;3.53;1.50;;;31.30;50.20;;;;;;4886226;29;20389;-78
2022/07/09 09:43:23;;;;;;;1.48;1.20;;;32.50;49.30;;;;;;4903722;29;20017;-79
2022/07/09 09:45:58;;;;;;;1.40;1.30;;;32.10;48.30;;;;;;4896772;29;20066;-80
2022/07/09 09:48:24;;;;;;;1.33;1.20;;;31.90;48.30;;;;;;4892140;29;20024;-81
2022/07/09 09:50:59;;;;;;;2.55;1.40;;;31.80;49.30;;;;;;4903521;29;20028;-80
2022/07/09 09:53:25;;;;;;;2.05;1.38;;;31.60;49.00;;;;;;4896465;29;20024;-71
2022/07/09 09:55:51;;;;;;;2.20;1.25;;;31.20;49.50;;;;;;4895921;29;20397;-70
2022/07/09 09:58:17;;;;;;;2.08;1.20;;;30.90;50.00;;;;;;4901605;29;20055;-75
2022/07/09 10:00:44;;;;;;;1.73;1.10;;;31.30;49.20;;;;;;4897280;29;20478;-76
2022/07/09 10:03:12;;;;;;;2.03;1.20;;;32.50;48.20;;;;;;4900537;29;20035;-74
2022/07/09 10:05:39;;;;;;;2.40;1.48;;;32.70;47.40;;;;;;4899615;29;20020;-74
2022/07/09 10:08:06;;;;;;;2.92;1.40;;;33.10;46.30;;;;;;4895507;29;20040;-73
2022/07/09 10:10:31;;;;;;;2.35;1.20;;;33.30;46.80;;;;;;4895356;29;20020;-73
2022/07/09 10:12:57;;;;;;;1.45;1.35;;;34.00;46.80;;;;;;4880990;29;20718;-75
2022/07/09 10:15:26;;;;;;;1.30;1.20;;;34.80;45.90;;;;;;4899678;29;20024;-73
2022/07/09 10:17:52;;;;;;;1.10;0.93;;;32.60;45.50;;;;;;4902517;29;20024;-70
2022/07/09 10:20:28;;;;;;;1.40;1.02;;;32.70;48.10;;;;;;4892076;29;20032;-66
2022/07/09 10:22:54;;;;;;;3.47;1.15;;;32.70;46.50;;;;;;4895602;29;20020;-66
2022/07/09 10:25:27;;;;;;;1.05;0.90;;;33.30;46.00;;;;;;4896239;29;20028;-66
2022/07/09 10:27:53;;;;;;;1.42;1.15;;;31.50;47.80;;;;;;4892361;29;20029;-66
2022/07/09 10:30:30;;;;;;;1.10;0.85;;;31.20;48.00;;;;;;4891440;29;20031;-67
2022/07/09 10:33:05;;;;;;;2.50;1.25;;;31.50;47.60;;;;;;4895070;29;20466;-68
2022/07/09 10:35:38;;;;;;;1.90;1.10;;;30.00;48.90;;;;;;4897760;29;20533;-68
2022/07/09 10:38:03;;;;;;;0.82;0.82;;;29.90;50.30;;;;;;4891809;29;20037;-68
2022/07/09 10:40:41;;;;;;;1.20;1.10;;;29.90;50.50;;;;;;4896392;29;20043;-70
2022/07/09 10:43:07;;;;;;;1.25;0.80;;;31.70;49.40;;;;;;4896245;29;20024;-70
2022/07/09 10:45:44;;;;;;;1.92;1.02;;;33.60;47.80;;;;;;4892043;29;20028;-68
2022/07/09 10:48:11;;;;;;;1.58;1.00;;;34.60;46.40;;;;;;4893569;29;20042;-70
2022/07/09 10:50:45;;;;;;;1.77;0.80;;;35.30;45.70;;;;;;4896355;29;20461;-68
2022/07/09 10:53:12;;;;;;;0.90;0.80;;;35.10;44.80;;;;;;4875707;29;20039;-70
2022/07/09 10:55:46;;;;;;;1.38;0.93;;;36.10;44.80;;;;;;4898917;29;20388;-86
2022/07/09 10:58:21;;;;;;;1.13;0.93;;;35.00;44.70;;;;;;4896834;29;20040;-88
2022/07/09 11:04:08;;;;;;;2.42;1.08;;;32.80;46.50;;;;;;4898246;29;20087;-88
2022/07/09 11:06:48;;;;;;;1.25;1.02;;;31.20;48.50;;;;;;4879496;29;20037;-88
2022/07/09 11:09:16;;;;;;;1.75;1.20;;;30.30;49.60;;;;;;4883539;29;20034;-83
2022/07/09 11:11:43;;;;;;;2.55;1.00;;;29.70;50.80;;;;;;4895022;29;20348;-87
2022/07/09 11:14:11;;;;;;;5.25;1.10;;;29.60;51.80;;;;;;4900742;29;20036;-90
2022/07/09 11:17:07;;;;;;;1.60;0.90;;;29.00;52.30;;;;;;4905675;29;20059;-90
2022/07/09 11:25:48;;;;;;;2.47;1.10;;;28.60;52.80;;;;;;4906038;29;20038;-85
2022/07/09 11:31:17;;;;;;;1.73;1.13;;;28.30;53.40;;;;;;4900263;29;19970;-82
2022/07/09 11:36:54;;;;;;;1.88;1.20;;;28.10;54.00;;;;;;4912777;29;19965;-84
2022/07/09 11:39:36;;;;;;;3.15;1.30;;;27.60;54.70;;;;;;4911910;29;20034;-78
2022/07/09 11:42:04;;;;;;;1.63;1.10;;;27.30;54.30;;;;;;4876148;29;20029;-78
2022/07/09 11:44:35;;;;;;;1.77;1.45;;;27.30;54.00;;;;;;4885222;29;20092;-78
2022/07/09 11:50:14;;;;;;;2.03;1.33;;;27.00;55.10;;;;;;4896889;29;20047;-78
2022/07/09 11:52:46;;;;;;;2.75;1.50;;;27.20;55.20;;;;;;4899512;29;20080;-78
2022/07/09 11:55:19;;;;;;;2.00;1.10;;;27.40;55.00;;;;;;4878306;29;20032;-78
2022/07/09 11:58:18;;;;;;;3.03;1.30;;;27.50;54.00;;;;;;4893450;29;20028;-78
2022/07/09 12:00:43;;;;;;;1.42;1.33;;;27.50;54.20;;;;;;4896088;29;20028;-79
2022/07/09 12:03:14;;;;;;;;;;;27.50;54.50;;;;;;4901463;29;20080;-78
2022/07/09 12:05:41;;;;;;;2.47;1.30;;;27.40;54.60;;;;;;4898680;29;19938;-78
2022/07/09 12:08:13;;;;;;;2.30;1.48;;;27.20;54.60;;;;;;4904463;29;20020;-78
2022/07/09 12:10:39;;;;;;;1.52;1.42;;;27.40;55.00;;;;;;4882419;29;20390;-78
2022/07/09 12:13:11;;;;;;;;;;;27.50;54.60;;;;;;4889361;29;20040;-78
2022/07/09 12:15:39;;;;;;;1.63;1.33;;;27.50;54.00;;;;;;4900302;29;20037;-78
2022/07/09 12:18:05;;;;;;;1.55;1.30;;;27.30;54.20;;;;;;4904782;29;20020;-79
2022/07/09 12:20:32;;;;;;;1.83;1.40;;;27.20;53.50;;;;;;4902561;29;20028;-78
2022/07/09 12:22:58;;;;;;;2.05;1.10;;;26.80;53.30;;;;;;4906816;29;20075;-81
2022/07/09 12:25:26;;;;;;;1.10;1.10;;;26.90;53.50;;;;;;4892054;29;20117;-82
2022/07/09 12:27:59;;;;;;;2.97;1.50;;;27.20;53.80;;;;;;4906105;29;20369;-83
2022/07/09 12:30:29;;;;;;;3.22;1.40;;;27.40;53.40;;;;;;4890622;29;20072;-85
2022/07/09 12:33:04;;;;;;;2.80;1.33;;;27.50;53.10;;;;;;4888459;29;20564;-86
2022/07/09 12:35:59;;;;;;;1.55;1.45;;;27.70;53.20;;;;;;4912203;29;20059;-84
2022/07/09 12:38:41;;;;;;;1.58;1.27;;;27.80;52.60;;;;;;4925438;29;20030;-83
2022/07/09 12:41:19;;;;;;;1.30;1.20;;;27.70;52.90;;;;;;4890755;29;20106;-85
2022/07/09 12:44:05;;;;;;;2.00;1.23;;;27.80;52.70;;;;;;4908052;29;20518;-84
2022/07/09 12:46:38;;;;;;;1.55;1.13;;;27.90;52.60;;;;;;4918422;29;20071;-85
2022/07/09 12:52:32;;;;;;;1.90;1.35;;;27.60;52.00;;;;;;4908065;29;20064;-87
2022/07/09 12:58:20;;;;;;;1.65;1.50;;;27.70;52.10;;;;;;4900159;29;20092;-89
2022/07/09 13:00:47;;;;;;;;;;;27.60;52.30;;;;;;4882460;29;20462;-89
2022/07/09 13:03:15;;;;;;;;;;;27.80;52.70;;;;;;4895747;29;19910;-88
2022/07/09 13:05:40;;;;;;;2.83;1.35;;;27.70;51.00;;;;;;4889153;29;19915;-89
2022/07/09 13:11:09;;;;;;;1.33;1.00;;;27.50;50.90;;;;;;4909868;29;19972;-88
2022/07/09 13:13:37;;;;;;;;;;;27.00;52.30;;;;;;4886099;29;20024;-88
2022/07/09 13:16:05;;;;;;;;;;;27.30;51.90;;;;;;4900819;29;19915;-86
2022/07/09 13:19:14;;;;;;;1.25;1.05;;;27.40;51.90;;;;;;4904974;29;19955;-83
2022/07/09 13:22:03;;;;;;;2.10;1.25;;;27.40;51.40;;;;;;4914824;29;20034;-86
2022/07/09 13:24:34;;;;;;;2.15;1.25;;;27.60;51.50;;;;;;4914425;29;20036;-87